sensor_id;sensor_type;location;lat;lon;timestamp;P1;durP1;ratioP1;P2;durP2;ratioP2
76903;SDS011;65865;51.698;-0.292;2023-05-16T00:00:34;1.10;;;0.40;;
76903;SDS011;65865;51.698;-0.292;2023-05-16T00:03:00;1.45;;;0.40;;
76903;SDS011;65865;51.698;-0.292;2023-05-16T00:05:27;1.77;;;0.50;;
76903;SDS011;65865;51.698;-0.292;2023-05-16T00:07:53;2.10;;;0.40;;
76903;SDS011;65865;51.698;-0.292;2023-05-16T00:10:19;2.63;;;0.75;;
76903;SDS011;65865;51.698;-0.292;2023-05-16T00:12:45;1.27;;;0.50;;
76903;SDS011;65865;51.698;-0.292;2023-05-16T00:15:16;2.10;;;0.45;;
76903;SDS011;65865;51.698;-0.292;2023-05-16T00:17:42;1.88;;;0.60;;
76903;SDS011;65865;51.698;-0.292;2023-05-16T00:20:10;3.22;;;0.70;;
76903;SDS011;65865;51.698;-0.292;2023-05-16T00:25:04;2.67;;;0.70;;
76903;SDS011;65865;51.698;-0.292;2023-05-16T00:27:30;2.20;;;0.47;;
76903;SDS011;65865;51.698;-0.292;2023-05-16T00:29:56;2.63;;;0.57;;
76903;SDS011;65865;51.698;-0.292;2023-05-16T00:32:22;1.20;;;0.30;;
76903;SDS011;65865;51.698;-0.292;2023-05-16T00:34:48;1.95;;;0.50;;
76903;SDS011;65865;51.698;-0.292;2023-05-16T00:37:14;2.10;;;0.43;;
76903;SDS011;65865;51.698;-0.292;2023-05-16T00:39:40;1.80;;;0.50;;
76903;SDS011;65865;51.698;-0.292;2023-05-16T00:42:06;2.03;;;0.55;;
76903;SDS011;65865;51.698;-0.292;2023-05-16T00:44:32;2.60;;;0.70;;
76903;SDS011;65865;51.698;-0.292;2023-05-16T00:46:58;1.35;;;0.50;;
76903;SDS011;65865;51.698;-0.292;2023-05-16T00:49:26;2.33;;;0.50;;
76903;SDS011;65865;51.698;-0.292;2023-05-16T00:51:52;2.20;;;0.60;;
76903;SDS011;65865;51.698;-0.292;2023-05-16T00:54:19;2.25;;;0.52;;
76903;SDS011;65865;51.698;-0.292;2023-05-16T00:56:47;2.65;;;0.60;;
76903;SDS011;65865;51.698;-0.292;2023-05-16T00:59:13;1.67;;;0.73;;
76903;SDS011;65865;51.698;-0.292;2023-05-16T01:01:39;2.88;;;0.60;;
76903;SDS011;65865;51.698;-0.292;2023-05-16T01:04:06;1.00;;;0.40;;
76903;SDS011;65865;51.698;-0.292;2023-05-16T01:06:32;2.03;;;0.63;;
76903;SDS011;65865;51.698;-0.292;2023-05-16T01:08:58;1.85;;;0.60;;
76903;SDS011;65865;51.698;-0.292;2023-05-16T01:14:18;2.15;;;0.50;;
76903;SDS011;65865;51.698;-0.292;2023-05-16T01:27:13;2.78;;;0.73;;
76903;SDS011;65865;51.698;-0.292;2023-05-16T01:29:40;2.08;;;0.70;;
76903;SDS011;65865;51.698;-0.292;2023-05-16T01:32:06;2.20;;;0.50;;
76903;SDS011;65865;51.698;-0.292;2023-05-16T01:34:33;1.95;;;0.70;;
76903;SDS011;65865;51.698;-0.292;2023-05-16T01:37:01;3.15;;;0.47;;
76903;SDS011;65865;51.698;-0.292;2023-05-16T01:39:32;2.50;;;0.50;;
76903;SDS011;65865;51.698;-0.292;2023-05-16T01:42:06;3.35;;;0.75;;
76903;SDS011;65865;51.698;-0.292;2023-05-16T01:44:52;1.83;;;0.65;;
76903;SDS011;65865;51.698;-0.292;2023-05-16T01:47:19;1.63;;;0.40;;
76903;SDS011;65865;51.698;-0.292;2023-05-16T01:49:50;1.98;;;0.57;;
76903;SDS011;65865;51.698;-0.292;2023-05-16T01:55:17;2.17;;;0.68;;
76903;SDS011;65865;51.698;-0.292;2023-05-16T01:57:45;2.15;;;0.68;;
76903;SDS011;65865;51.698;-0.292;2023-05-16T02:00:13;2.03;;;0.60;;
76903;SDS011;65865;51.698;-0.292;2023-05-16T02:02:39;2.65;;;0.70;;
76903;SDS011;65865;51.698;-0.292;2023-05-16T02:05:06;2.13;;;0.73;;
76903;SDS011;65865;51.698;-0.292;2023-05-16T02:07:32;2.13;;;0.60;;
76903;SDS011;65865;51.698;-0.292;2023-05-16T02:09:58;2.55;;;0.55;;
76903;SDS011;65865;51.698;-0.292;2023-05-16T02:12:24;1.88;;;0.60;;
76903;SDS011;65865;51.698;-0.292;2023-05-16T02:14:50;1.65;;;0.65;;
76903;SDS011;65865;51.698;-0.292;2023-05-16T02:17:16;2.30;;;0.70;;
76903;SDS011;65865;51.698;-0.292;2023-05-16T02:19:42;2.40;;;0.73;;
76903;SDS011;65865;51.698;-0.292;2023-05-16T02:22:08;1.85;;;0.60;;
76903;SDS011;65865;51.698;-0.292;2023-05-16T02:24:34;2.53;;;0.60;;
76903;SDS011;65865;51.698;-0.292;2023-05-16T02:27:00;3.03;;;0.82;;
76903;SDS011;65865;51.698;-0.292;2023-05-16T02:29:26;2.42;;;0.80;;
76903;SDS011;65865;51.698;-0.292;2023-05-16T02:31:52;1.70;;;0.50;;
76903;SDS011;65865;51.698;-0.292;2023-05-16T02:34:18;1.67;;;0.50;;
76903;SDS011;65865;51.698;-0.292;2023-05-16T02:36:44;2.38;;;0.70;;
76903;SDS011;65865;51.698;-0.292;2023-05-16T02:39:10;2.97;;;0.60;;
76903;SDS011;65865;51.698;-0.292;2023-05-16T02:41:36;2.13;;;0.60;;
76903;SDS011;65865;51.698;-0.292;2023-05-16T02:44:02;2.95;;;0.60;;
76903;SDS011;65865;51.698;-0.292;2023-05-16T02:46:29;2.10;;;0.55;;
76903;SDS011;65865;51.698;-0.292;2023-05-16T02:48:56;2.22;;;0.50;;
76903;SDS011;65865;51.698;-0.292;2023-05-16T02:51:22;2.83;;;0.60;;
76903;SDS011;65865;51.698;-0.292;2023-05-16T02:53:49;2.10;;;0.50;;
76903;SDS011;65865;51.698;-0.292;2023-05-16T02:56:15;1.73;;;0.40;;
76903;SDS011;65865;51.698;-0.292;2023-05-16T02:58:42;1.88;;;0.50;;
76903;SDS011;65865;51.698;-0.292;2023-05-16T03:01:08;2.85;;;0.70;;
76903;SDS011;65865;51.698;-0.292;2023-05-16T03:03:35;1.48;;;0.45;;
76903;SDS011;65865;51.698;-0.292;2023-05-16T03:06:02;2.13;;;0.50;;
76903;SDS011;65865;51.698;-0.292;2023-05-16T03:08:28;2.85;;;0.60;;
76903;SDS011;65865;51.698;-0.292;2023-05-16T03:10:54;6.15;;;0.70;;
76903;SDS011;65865;51.698;-0.292;2023-05-16T03:13:20;1.67;;;0.60;;
76903;SDS011;65865;51.698;-0.292;2023-05-16T03:15:47;2.28;;;0.63;;
76903;SDS011;65865;51.698;-0.292;2023-05-16T03:18:13;2.08;;;0.65;;
76903;SDS011;65865;51.698;-0.292;2023-05-16T03:20:39;2.30;;;0.65;;
76903;SDS011;65865;51.698;-0.292;2023-05-16T03:23:05;2.92;;;0.60;;
76903;SDS011;65865;51.698;-0.292;2023-05-16T03:25:35;1.48;;;0.60;;
76903;SDS011;65865;51.698;-0.292;2023-05-16T03:28:04;2.30;;;0.50;;
76903;SDS011;65865;51.698;-0.292;2023-05-16T03:30:34;2.33;;;0.57;;
76903;SDS011;65865;51.698;-0.292;2023-05-16T03:33:00;1.95;;;0.70;;
76903;SDS011;65865;51.698;-0.292;2023-05-16T03:35:27;2.08;;;0.60;;
76903;SDS011;65865;51.698;-0.292;2023-05-16T03:37:53;2.28;;;0.50;;
76903;SDS011;65865;51.698;-0.292;2023-05-16T03:40:20;3.00;;;0.90;;
76903;SDS011;65865;51.698;-0.292;2023-05-16T03:42:46;1.42;;;0.50;;
76903;SDS011;65865;51.698;-0.292;2023-05-16T03:45:12;1.65;;;0.60;;
76903;SDS011;65865;51.698;-0.292;2023-05-16T03:47:38;1.85;;;0.40;;
76903;SDS011;65865;51.698;-0.292;2023-05-16T03:50:04;1.52;;;0.50;;
76903;SDS011;65865;51.698;-0.292;2023-05-16T03:52:30;1.35;;;0.55;;
76903;SDS011;65865;51.698;-0.292;2023-05-16T03:54:56;2.92;;;0.68;;
76903;SDS011;65865;51.698;-0.292;2023-05-16T03:57:22;2.35;;;0.43;;
76903;SDS011;65865;51.698;-0.292;2023-05-16T03:59:48;1.77;;;0.40;;
76903;SDS011;65865;51.698;-0.292;2023-05-16T04:02:14;2.13;;;0.50;;
76903;SDS011;65865;51.698;-0.292;2023-05-16T04:04:40;2.35;;;0.60;;
76903;SDS011;65865;51.698;-0.292;2023-05-16T04:07:07;1.73;;;0.50;;
76903;SDS011;65865;51.698;-0.292;2023-05-16T04:09:33;1.23;;;0.52;;
76903;SDS011;65865;51.698;-0.292;2023-05-16T04:11:58;2.53;;;0.60;;
76903;SDS011;65865;51.698;-0.292;2023-05-16T04:14:27;1.60;;;0.43;;
76903;SDS011;65865;51.698;-0.292;2023-05-16T04:16:53;2.97;;;0.50;;
76903;SDS011;65865;51.698;-0.292;2023-05-16T04:19:19;0.80;;;0.32;;
76903;SDS011;65865;51.698;-0.292;2023-05-16T04:21:45;1.58;;;0.38;;
76903;SDS011;65865;51.698;-0.292;2023-05-16T04:24:11;1.38;;;0.40;;
76903;SDS011;65865;51.698;-0.292;2023-05-16T04:26:37;1.63;;;0.40;;
76903;SDS011;65865;51.698;-0.292;2023-05-16T04:29:03;1.10;;;0.40;;
76903;SDS011;65865;51.698;-0.292;2023-05-16T04:31:30;2.33;;;0.40;;
76903;SDS011;65865;51.698;-0.292;2023-05-16T04:33:56;2.63;;;0.60;;
76903;SDS011;65865;51.698;-0.292;2023-05-16T04:36:22;2.58;;;0.60;;
76903;SDS011;65865;51.698;-0.292;2023-05-16T04:38:48;2.13;;;0.60;;
76903;SDS011;65865;51.698;-0.292;2023-05-16T04:41:14;0.95;;;0.35;;
76903;SDS011;65865;51.698;-0.292;2023-05-16T04:43:41;1.92;;;0.63;;
76903;SDS011;65865;51.698;-0.292;2023-05-16T04:46:07;1.35;;;0.30;;
76903;SDS011;65865;51.698;-0.292;2023-05-16T04:48:33;1.27;;;0.40;;
76903;SDS011;65865;51.698;-0.292;2023-05-16T04:51:00;1.77;;;0.50;;
76903;SDS011;65865;51.698;-0.292;2023-05-16T04:53:26;1.75;;;0.50;;
76903;SDS011;65865;51.698;-0.292;2023-05-16T04:55:52;3.92;;;0.80;;
76903;SDS011;65865;51.698;-0.292;2023-05-16T04:58:18;1.52;;;0.38;;
76903;SDS011;65865;51.698;-0.292;2023-05-16T05:00:44;1.90;;;0.73;;
76903;SDS011;65865;51.698;-0.292;2023-05-16T05:03:11;3.20;;;0.60;;
76903;SDS011;65865;51.698;-0.292;2023-05-16T05:05:37;1.23;;;0.30;;
76903;SDS011;65865;51.698;-0.292;2023-05-16T05:08:03;1.05;;;0.20;;
76903;SDS011;65865;51.698;-0.292;2023-05-16T05:10:30;1.23;;;0.40;;
76903;SDS011;65865;51.698;-0.292;2023-05-16T05:12:56;1.73;;;0.40;;
76903;SDS011;65865;51.698;-0.292;2023-05-16T05:15:22;2.17;;;0.40;;
76903;SDS011;65865;51.698;-0.292;2023-05-16T05:17:48;1.67;;;0.40;;
76903;SDS011;65865;51.698;-0.292;2023-05-16T05:20:14;1.75;;;0.38;;
76903;SDS011;65865;51.698;-0.292;2023-05-16T05:22:40;0.98;;;0.30;;
76903;SDS011;65865;51.698;-0.292;2023-05-16T05:25:07;1.85;;;0.40;;
76903;SDS011;65865;51.698;-0.292;2023-05-16T05:27:33;2.58;;;0.50;;
76903;SDS011;65865;51.698;-0.292;2023-05-16T05:29:59;1.20;;;0.30;;
76903;SDS011;65865;51.698;-0.292;2023-05-16T05:32:25;1.65;;;0.52;;
76903;SDS011;65865;51.698;-0.292;2023-05-16T05:34:51;1.55;;;0.40;;
76903;SDS011;65865;51.698;-0.292;2023-05-16T05:37:17;1.05;;;0.22;;
76903;SDS011;65865;51.698;-0.292;2023-05-16T05:39:43;1.30;;;0.32;;
76903;SDS011;65865;51.698;-0.292;2023-05-16T05:42:09;2.33;;;0.40;;
76903;SDS011;65865;51.698;-0.292;2023-05-16T05:44:36;1.27;;;0.20;;
76903;SDS011;65865;51.698;-0.292;2023-05-16T05:47:02;1.58;;;0.40;;
76903;SDS011;65865;51.698;-0.292;2023-05-16T05:49:28;1.58;;;0.30;;
76903;SDS011;65865;51.698;-0.292;2023-05-16T05:51:55;1.77;;;0.30;;
76903;SDS011;65865;51.698;-0.292;2023-05-16T05:54:21;1.52;;;0.30;;
76903;SDS011;65865;51.698;-0.292;2023-05-16T05:56:47;1.02;;;0.30;;
76903;SDS011;65865;51.698;-0.292;2023-05-16T05:59:13;2.65;;;0.30;;
76903;SDS011;65865;51.698;-0.292;2023-05-16T06:01:42;1.70;;;0.52;;
76903;SDS011;65865;51.698;-0.292;2023-05-16T06:04:08;2.33;;;0.30;;
76903;SDS011;65865;51.698;-0.292;2023-05-16T06:06:35;2.00;;;0.40;;
76903;SDS011;65865;51.698;-0.292;2023-05-16T06:09:01;1.52;;;0.60;;
76903;SDS011;65865;51.698;-0.292;2023-05-16T06:11:27;2.13;;;0.30;;
76903;SDS011;65865;51.698;-0.292;2023-05-16T06:13:54;2.30;;;0.50;;
76903;SDS011;65865;51.698;-0.292;2023-05-16T06:16:23;2.33;;;0.40;;
76903;SDS011;65865;51.698;-0.292;2023-05-16T06:18:49;2.17;;;0.50;;
76903;SDS011;65865;51.698;-0.292;2023-05-16T06:21:15;2.00;;;0.40;;
76903;SDS011;65865;51.698;-0.292;2023-05-16T06:23:41;2.80;;;0.40;;
76903;SDS011;65865;51.698;-0.292;2023-05-16T06:26:07;2.55;;;0.30;;
76903;SDS011;65865;51.698;-0.292;2023-05-16T06:28:33;2.75;;;0.30;;
76903;SDS011;65865;51.698;-0.292;2023-05-16T06:30:59;2.83;;;0.50;;
76903;SDS011;65865;51.698;-0.292;2023-05-16T06:33:25;1.95;;;0.40;;
76903;SDS011;65865;51.698;-0.292;2023-05-16T06:35:51;1.05;;;0.22;;
76903;SDS011;65865;51.698;-0.292;2023-05-16T06:38:18;4.13;;;0.50;;
76903;SDS011;65865;51.698;-0.292;2023-05-16T06:40:44;2.13;;;0.50;;
76903;SDS011;65865;51.698;-0.292;2023-05-16T06:43:10;1.73;;;0.52;;
76903;SDS011;65865;51.698;-0.292;2023-05-16T06:45:36;2.10;;;0.30;;
76903;SDS011;65865;51.698;-0.292;2023-05-16T06:48:06;2.85;;;0.47;;
76903;SDS011;65865;51.698;-0.292;2023-05-16T06:50:32;1.85;;;0.50;;
76903;SDS011;65865;51.698;-0.292;2023-05-16T06:52:59;3.58;;;0.60;;
76903;SDS011;65865;51.698;-0.292;2023-05-16T06:55:25;3.38;;;0.32;;
76903;SDS011;65865;51.698;-0.292;2023-05-16T06:57:51;2.85;;;0.30;;
76903;SDS011;65865;51.698;-0.292;2023-05-16T07:00:17;3.50;;;0.50;;
76903;SDS011;65865;51.698;-0.292;2023-05-16T07:02:44;4.43;;;0.57;;
76903;SDS011;65865;51.698;-0.292;2023-05-16T07:05:10;3.47;;;0.57;;
76903;SDS011;65865;51.698;-0.292;2023-05-16T07:07:36;2.95;;;0.50;;
76903;SDS011;65865;51.698;-0.292;2023-05-16T07:10:02;1.60;;;0.35;;
76903;SDS011;65865;51.698;-0.292;2023-05-16T07:12:28;2.35;;;0.30;;
76903;SDS011;65865;51.698;-0.292;2023-05-16T07:14:55;2.15;;;0.47;;
76903;SDS011;65865;51.698;-0.292;2023-05-16T07:17:21;2.30;;;0.20;;
76903;SDS011;65865;51.698;-0.292;2023-05-16T07:19:48;3.88;;;0.70;;
76903;SDS011;65865;51.698;-0.292;2023-05-16T07:22:14;1.90;;;0.55;;
76903;SDS011;65865;51.698;-0.292;2023-05-16T07:24:40;2.28;;;0.43;;
76903;SDS011;65865;51.698;-0.292;2023-05-16T07:27:06;4.07;;;0.80;;
76903;SDS011;65865;51.698;-0.292;2023-05-16T07:29:32;3.60;;;0.70;;
76903;SDS011;65865;51.698;-0.292;2023-05-16T07:31:59;4.45;;;0.82;;
76903;SDS011;65865;51.698;-0.292;2023-05-16T07:34:25;3.47;;;0.40;;
76903;SDS011;65865;51.698;-0.292;2023-05-16T07:36:51;3.95;;;0.95;;
76903;SDS011;65865;51.698;-0.292;2023-05-16T07:39:17;3.25;;;0.50;;
76903;SDS011;65865;51.698;-0.292;2023-05-16T07:41:44;4.00;;;0.60;;
76903;SDS011;65865;51.698;-0.292;2023-05-16T07:44:10;2.67;;;0.52;;
76903;SDS011;65865;51.698;-0.292;2023-05-16T07:46:36;4.13;;;0.50;;
76903;SDS011;65865;51.698;-0.292;2023-05-16T07:49:02;5.30;;;0.70;;
76903;SDS011;65865;51.698;-0.292;2023-05-16T07:51:28;3.90;;;0.95;;
76903;SDS011;65865;51.698;-0.292;2023-05-16T07:53:54;5.18;;;0.57;;
76903;SDS011;65865;51.698;-0.292;2023-05-16T07:56:20;2.70;;;0.73;;
76903;SDS011;65865;51.698;-0.292;2023-05-16T07:58:47;4.38;;;0.70;;
76903;SDS011;65865;51.698;-0.292;2023-05-16T08:01:14;3.03;;;0.60;;
76903;SDS011;65865;51.698;-0.292;2023-05-16T08:03:40;2.33;;;0.50;;
76903;SDS011;65865;51.698;-0.292;2023-05-16T08:06:08;4.22;;;0.50;;
76903;SDS011;65865;51.698;-0.292;2023-05-16T08:08:34;1.85;;;0.40;;
76903;SDS011;65865;51.698;-0.292;2023-05-16T08:11:00;3.05;;;0.45;;
76903;SDS011;65865;51.698;-0.292;2023-05-16T08:13:26;5.93;;;0.60;;
76903;SDS011;65865;51.698;-0.292;2023-05-16T08:15:52;4.57;;;0.70;;
76903;SDS011;65865;51.698;-0.292;2023-05-16T08:18:18;4.38;;;0.50;;
76903;SDS011;65865;51.698;-0.292;2023-05-16T08:20:44;4.80;;;0.60;;
76903;SDS011;65865;51.698;-0.292;2023-05-16T08:23:10;3.92;;;0.70;;
76903;SDS011;65865;51.698;-0.292;2023-05-16T08:25:36;2.35;;;0.50;;
76903;SDS011;65865;51.698;-0.292;2023-05-16T08:28:02;2.03;;;0.90;;
76903;SDS011;65865;51.698;-0.292;2023-05-16T08:30:28;3.22;;;0.50;;
76903;SDS011;65865;51.698;-0.292;2023-05-16T08:32:54;3.83;;;0.82;;
76903;SDS011;65865;51.698;-0.292;2023-05-16T08:35:20;4.85;;;0.85;;
76903;SDS011;65865;51.698;-0.292;2023-05-16T08:37:46;3.33;;;0.57;;
76903;SDS011;65865;51.698;-0.292;2023-05-16T08:40:12;3.00;;;0.60;;
76903;SDS011;65865;51.698;-0.292;2023-05-16T08:42:39;3.30;;;0.80;;
76903;SDS011;65865;51.698;-0.292;2023-05-16T08:45:06;3.40;;;0.68;;
76903;SDS011;65865;51.698;-0.292;2023-05-16T08:47:32;3.75;;;0.80;;
76903;SDS011;65865;51.698;-0.292;2023-05-16T08:50:01;3.35;;;0.55;;
76903;SDS011;65865;51.698;-0.292;2023-05-16T08:52:28;3.47;;;0.70;;
76903;SDS011;65865;51.698;-0.292;2023-05-16T08:54:56;2.72;;;0.50;;
76903;SDS011;65865;51.698;-0.292;2023-05-16T08:57:24;4.13;;;0.68;;
76903;SDS011;65865;51.698;-0.292;2023-05-16T08:59:51;3.45;;;0.80;;
76903;SDS011;65865;51.698;-0.292;2023-05-16T09:02:19;3.78;;;0.40;;
76903;SDS011;65865;51.698;-0.292;2023-05-16T09:04:46;1.92;;;0.52;;
76903;SDS011;65865;51.698;-0.292;2023-05-16T09:07:13;2.28;;;0.45;;
76903;SDS011;65865;51.698;-0.292;2023-05-16T09:09:40;4.15;;;0.82;;
76903;SDS011;65865;51.698;-0.292;2023-05-16T09:12:06;4.40;;;0.43;;
76903;SDS011;65865;51.698;-0.292;2023-05-16T09:14:32;3.25;;;0.30;;
76903;SDS011;65865;51.698;-0.292;2023-05-16T09:17:03;5.07;;;0.70;;
76903;SDS011;65865;51.698;-0.292;2023-05-16T09:19:40;4.55;;;0.47;;
76903;SDS011;65865;51.698;-0.292;2023-05-16T09:22:12;3.85;;;0.70;;
76903;SDS011;65865;51.698;-0.292;2023-05-16T09:24:39;4.47;;;0.40;;
76903;SDS011;65865;51.698;-0.292;2023-05-16T09:27:12;2.72;;;0.43;;
76903;SDS011;65865;51.698;-0.292;2023-05-16T09:29:42;2.17;;;0.32;;
76903;SDS011;65865;51.698;-0.292;2023-05-16T09:32:11;2.50;;;0.40;;
76903;SDS011;65865;51.698;-0.292;2023-05-16T09:34:45;5.72;;;0.45;;
76903;SDS011;65865;51.698;-0.292;2023-05-16T09:37:22;4.22;;;0.40;;
76903;SDS011;65865;51.698;-0.292;2023-05-16T09:39:49;1.85;;;0.40;;
76903;SDS011;65865;51.698;-0.292;2023-05-16T09:42:16;3.28;;;0.35;;
76903;SDS011;65865;51.698;-0.292;2023-05-16T09:44:46;6.95;;;0.73;;
76903;SDS011;65865;51.698;-0.292;2023-05-16T09:47:15;4.13;;;0.55;;
76903;SDS011;65865;51.698;-0.292;2023-05-16T09:49:42;3.50;;;0.40;;
76903;SDS011;65865;51.698;-0.292;2023-05-16T09:52:08;2.85;;;0.50;;
76903;SDS011;65865;51.698;-0.292;2023-05-16T09:54:35;3.70;;;0.40;;
76903;SDS011;65865;51.698;-0.292;2023-05-16T09:57:01;4.80;;;0.93;;
76903;SDS011;65865;51.698;-0.292;2023-05-16T09:59:27;4.75;;;0.80;;
76903;SDS011;65865;51.698;-0.292;2023-05-16T10:01:54;7.75;;;0.70;;
76903;SDS011;65865;51.698;-0.292;2023-05-16T10:06:48;4.25;;;0.60;;
76903;SDS011;65865;51.698;-0.292;2023-05-16T10:09:18;3.25;;;0.55;;
76903;SDS011;65865;51.698;-0.292;2023-05-16T10:11:45;2.67;;;0.52;;
76903;SDS011;65865;51.698;-0.292;2023-05-16T10:14:13;4.35;;;0.65;;
76903;SDS011;65865;51.698;-0.292;2023-05-16T10:16:41;3.75;;;0.73;;
76903;SDS011;65865;51.698;-0.292;2023-05-16T10:19:08;2.80;;;0.70;;
76903;SDS011;65865;51.698;-0.292;2023-05-16T10:21:36;3.80;;;0.73;;
76903;SDS011;65865;51.698;-0.292;2023-05-16T10:24:04;3.28;;;0.50;;
76903;SDS011;65865;51.698;-0.292;2023-05-16T10:26:31;3.40;;;0.85;;
76903;SDS011;65865;51.698;-0.292;2023-05-16T10:28:58;3.88;;;0.75;;
76903;SDS011;65865;51.698;-0.292;2023-05-16T10:31:24;3.97;;;0.45;;
76903;SDS011;65865;51.698;-0.292;2023-05-16T10:33:50;5.45;;;0.70;;
76903;SDS011;65865;51.698;-0.292;2023-05-16T10:36:17;5.68;;;0.70;;
76903;SDS011;65865;51.698;-0.292;2023-05-16T10:38:43;4.53;;;0.70;;
76903;SDS011;65865;51.698;-0.292;2023-05-16T10:41:09;4.15;;;0.60;;
76903;SDS011;65865;51.698;-0.292;2023-05-16T10:43:36;5.20;;;0.63;;
76903;SDS011;65865;51.698;-0.292;2023-05-16T10:46:03;4.35;;;0.73;;
76903;SDS011;65865;51.698;-0.292;2023-05-16T10:48:33;4.50;;;0.75;;
76903;SDS011;65865;51.698;-0.292;2023-05-16T10:50:59;2.97;;;0.50;;
76903;SDS011;65865;51.698;-0.292;2023-05-16T10:53:31;3.28;;;0.55;;
76903;SDS011;65865;51.698;-0.292;2023-05-16T11:06:26;3.33;;;0.70;;
76903;SDS011;65865;51.698;-0.292;2023-05-16T11:14:22;2.88;;;0.50;;
76903;SDS011;65865;51.698;-0.292;2023-05-16T11:19:27;4.03;;;0.60;;
76903;SDS011;65865;51.698;-0.292;2023-05-16T11:22:04;2.17;;;0.50;;
76903;SDS011;65865;51.698;-0.292;2023-05-16T11:24:33;2.10;;;0.50;;
76903;SDS011;65865;51.698;-0.292;2023-05-16T11:27:00;3.10;;;0.40;;
76903;SDS011;65865;51.698;-0.292;2023-05-16T11:29:35;3.20;;;0.77;;
76903;SDS011;65865;51.698;-0.292;2023-05-16T11:32:02;1.70;;;0.55;;
76903;SDS011;65865;51.698;-0.292;2023-05-16T11:34:29;3.33;;;0.52;;
76903;SDS011;65865;51.698;-0.292;2023-05-16T11:36:55;2.85;;;0.60;;
76903;SDS011;65865;51.698;-0.292;2023-05-16T11:39:21;3.30;;;0.80;;
76903;SDS011;65865;51.698;-0.292;2023-05-16T11:41:52;3.45;;;0.60;;
76903;SDS011;65865;51.698;-0.292;2023-05-16T11:44:18;2.50;;;0.60;;
76903;SDS011;65865;51.698;-0.292;2023-05-16T11:46:44;1.42;;;0.50;;
76903;SDS011;65865;51.698;-0.292;2023-05-16T11:49:10;3.15;;;0.70;;
76903;SDS011;65865;51.698;-0.292;2023-05-16T11:51:37;3.65;;;0.60;;
76903;SDS011;65865;51.698;-0.292;2023-05-16T11:54:04;2.45;;;0.30;;
76903;SDS011;65865;51.698;-0.292;2023-05-16T11:56:31;2.78;;;0.55;;
76903;SDS011;65865;51.698;-0.292;2023-05-16T11:59:00;2.45;;;0.40;;
76903;SDS011;65865;51.698;-0.292;2023-05-16T12:01:32;2.67;;;0.45;;
76903;SDS011;65865;51.698;-0.292;2023-05-16T12:03:59;2.10;;;0.30;;
76903;SDS011;65865;51.698;-0.292;2023-05-16T12:06:25;2.92;;;0.40;;
76903;SDS011;65865;51.698;-0.292;2023-05-16T12:08:53;2.13;;;0.50;;
76903;SDS011;65865;51.698;-0.292;2023-05-16T12:11:19;1.75;;;0.40;;
76903;SDS011;65865;51.698;-0.292;2023-05-16T12:16:13;1.42;;;0.32;;
76903;SDS011;65865;51.698;-0.292;2023-05-16T12:18:40;1.13;;;0.30;;
76903;SDS011;65865;51.698;-0.292;2023-05-16T12:21:06;2.47;;;0.40;;
76903;SDS011;65865;51.698;-0.292;2023-05-16T12:23:32;1.63;;;0.30;;
76903;SDS011;65865;51.698;-0.292;2023-05-16T12:25:58;2.33;;;0.73;;
76903;SDS011;65865;51.698;-0.292;2023-05-16T12:28:31;2.80;;;0.43;;
76903;SDS011;65865;51.698;-0.292;2023-05-16T12:31:02;2.03;;;0.30;;
76903;SDS011;65865;51.698;-0.292;2023-05-16T12:33:28;1.98;;;0.32;;
76903;SDS011;65865;51.698;-0.292;2023-05-16T12:35:54;2.65;;;0.40;;
76903;SDS011;65865;51.698;-0.292;2023-05-16T12:38:20;1.52;;;0.45;;
76903;SDS011;65865;51.698;-0.292;2023-05-16T12:40:50;2.97;;;0.40;;
76903;SDS011;65865;51.698;-0.292;2023-05-16T12:43:22;1.08;;;0.22;;
76903;SDS011;65865;51.698;-0.292;2023-05-16T12:45:48;1.98;;;0.30;;
76903;SDS011;65865;51.698;-0.292;2023-05-16T12:48:16;1.45;;;0.40;;
76903;SDS011;65865;51.698;-0.292;2023-05-16T12:50:43;1.80;;;0.40;;
76903;SDS011;65865;51.698;-0.292;2023-05-16T12:53:13;2.08;;;0.22;;
76903;SDS011;65865;51.698;-0.292;2023-05-16T12:55:39;2.95;;;0.52;;
76903;SDS011;65865;51.698;-0.292;2023-05-16T12:58:05;0.95;;;0.30;;
76903;SDS011;65865;51.698;-0.292;2023-05-16T13:00:32;1.75;;;0.30;;
76903;SDS011;65865;51.698;-0.292;2023-05-16T13:02:58;2.13;;;0.30;;
76903;SDS011;65865;51.698;-0.292;2023-05-16T13:05:24;1.45;;;0.30;;
76903;SDS011;65865;51.698;-0.292;2023-05-16T13:07:50;1.95;;;0.30;;
76903;SDS011;65865;51.698;-0.292;2023-05-16T13:10:17;0.85;;;0.22;;
76903;SDS011;65865;51.698;-0.292;2023-05-16T13:12:43;1.48;;;0.30;;
76903;SDS011;65865;51.698;-0.292;2023-05-16T13:15:10;1.05;;;0.20;;
76903;SDS011;65865;51.698;-0.292;2023-05-16T13:17:37;2.13;;;0.32;;
76903;SDS011;65865;51.698;-0.292;2023-05-16T13:20:03;1.88;;;0.38;;
76903;SDS011;65865;51.698;-0.292;2023-05-16T13:22:34;2.00;;;0.22;;
76903;SDS011;65865;51.698;-0.292;2023-05-16T13:25:00;1.48;;;0.40;;
76903;SDS011;65865;51.698;-0.292;2023-05-16T13:27:26;1.55;;;0.28;;
76903;SDS011;65865;51.698;-0.292;2023-05-16T13:29:52;1.98;;;0.35;;
76903;SDS011;65865;51.698;-0.292;2023-05-16T13:32:18;1.98;;;0.30;;
76903;SDS011;65865;51.698;-0.292;2023-05-16T13:34:44;1.83;;;0.40;;
76903;SDS011;65865;51.698;-0.292;2023-05-16T13:37:10;2.10;;;0.50;;
76903;SDS011;65865;51.698;-0.292;2023-05-16T13:39:36;1.17;;;0.50;;
76903;SDS011;65865;51.698;-0.292;2023-05-16T13:42:02;1.55;;;0.30;;
76903;SDS011;65865;51.698;-0.292;2023-05-16T13:44:28;1.05;;;0.30;;
76903;SDS011;65865;51.698;-0.292;2023-05-16T13:46:55;1.50;;;0.50;;
76903;SDS011;65865;51.698;-0.292;2023-05-16T13:49:22;1.25;;;0.30;;
76903;SDS011;65865;51.698;-0.292;2023-05-16T13:51:48;2.42;;;0.50;;
76903;SDS011;65865;51.698;-0.292;2023-05-16T13:54:14;1.85;;;0.50;;
76903;SDS011;65865;51.698;-0.292;2023-05-16T13:56:40;2.10;;;0.25;;
76903;SDS011;65865;51.698;-0.292;2023-05-16T13:59:06;1.80;;;0.40;;
76903;SDS011;65865;51.698;-0.292;2023-05-16T14:01:32;1.20;;;0.32;;
76903;SDS011;65865;51.698;-0.292;2023-05-16T14:03:58;1.77;;;0.40;;
76903;SDS011;65865;51.698;-0.292;2023-05-16T14:06:24;2.35;;;0.40;;
76903;SDS011;65865;51.698;-0.292;2023-05-16T14:08:50;1.50;;;0.40;;
76903;SDS011;65865;51.698;-0.292;2023-05-16T14:11:16;2.33;;;0.32;;
76903;SDS011;65865;51.698;-0.292;2023-05-16T14:13:44;1.25;;;0.30;;
76903;SDS011;65865;51.698;-0.292;2023-05-16T14:16:10;1.27;;;0.30;;
76903;SDS011;65865;51.698;-0.292;2023-05-16T14:18:36;0.70;;;0.20;;
76903;SDS011;65865;51.698;-0.292;2023-05-16T14:21:03;1.60;;;0.60;;
76903;SDS011;65865;51.698;-0.292;2023-05-16T14:23:29;1.83;;;0.50;;
76903;SDS011;65865;51.698;-0.292;2023-05-16T14:25:55;1.08;;;0.57;;
76903;SDS011;65865;51.698;-0.292;2023-05-16T14:28:21;1.67;;;0.43;;
76903;SDS011;65865;51.698;-0.292;2023-05-16T14:30:47;2.50;;;0.57;;
76903;SDS011;65865;51.698;-0.292;2023-05-16T14:33:13;5.65;;;1.00;;
76903;SDS011;65865;51.698;-0.292;2023-05-16T14:35:39;3.55;;;1.25;;
76903;SDS011;65865;51.698;-0.292;2023-05-16T14:38:05;4.93;;;1.80;;
76903;SDS011;65865;51.698;-0.292;2023-05-16T14:40:31;7.13;;;2.40;;
76903;SDS011;65865;51.698;-0.292;2023-05-16T14:42:58;8.07;;;2.20;;
76903;SDS011;65865;51.698;-0.292;2023-05-16T14:45:24;5.95;;;2.13;;
76903;SDS011;65865;51.698;-0.292;2023-05-16T14:47:50;8.55;;;2.40;;
76903;SDS011;65865;51.698;-0.292;2023-05-16T14:50:16;5.35;;;2.28;;
76903;SDS011;65865;51.698;-0.292;2023-05-16T14:52:42;5.28;;;2.78;;
76903;SDS011;65865;51.698;-0.292;2023-05-16T14:55:09;8.18;;;2.90;;
76903;SDS011;65865;51.698;-0.292;2023-05-16T14:57:35;7.40;;;3.10;;
76903;SDS011;65865;51.698;-0.292;2023-05-16T15:00:01;6.13;;;2.63;;
76903;SDS011;65865;51.698;-0.292;2023-05-16T15:02:29;6.22;;;2.60;;
76903;SDS011;65865;51.698;-0.292;2023-05-16T15:04:55;7.10;;;2.92;;
76903;SDS011;65865;51.698;-0.292;2023-05-16T15:07:21;10.05;;;2.72;;
76903;SDS011;65865;51.698;-0.292;2023-05-16T15:09:47;7.55;;;2.70;;
76903;SDS011;65865;51.698;-0.292;2023-05-16T15:12:13;7.43;;;3.10;;